Time;durP1;ratioP1;P1;durP2;ratioP2;P2;SDS_P1;SDS_P2;PMS_P1;PMS_P2;Temp;Humidity;BMP_temperature;BMP_pressure;BME280_temperature;BME280_humidity;BME280_pressure;Samples;Min_cycle;Max_cycle;Signal;HPM_P1;HPM_P2
2022/11/11 00:00:30;;;;;;;4.88;4.57;;;12.00;99.90;;;;;;5046571;28;20506;-82
2022/11/11 00:02:56;;;;;;;5.28;4.50;;;12.00;99.90;;;;;;5047203;28;20013;-82
2022/11/11 00:05:22;;;;;;;4.95;4.55;;;12.00;99.90;;;;;;5029283;28;20091;-82
2022/11/11 00:07:48;;;;;;;4.70;4.30;;;12.00;99.90;;;;;;5029375;28;20030;-81
2022/11/11 00:10:14;;;;;;;5.20;4.70;;;12.00;99.90;;;;;;5011830;28;20395;-82
2022/11/11 00:12:40;;;;;;;5.35;4.50;;;12.00;99.90;;;;;;5029636;28;20013;-83
2022/11/11 00:15:06;;;;;;;6.32;4.88;;;12.00;99.90;;;;;;5011706;28;20499;-83
2022/11/11 00:25:54;;;;;;;5.18;4.78;;;11.90;99.90;;;;;;5037939;28;20116;-83
2022/11/11 00:28:19;;;;;;;4.63;4.32;;;11.90;99.90;;;;;;5050792;28;20035;-82
2022/11/11 00:30:45;;;;;;;4.90;4.38;;;11.90;99.90;;;;;;5036211;28;20391;-82
2022/11/11 00:33:11;;;;;;;5.43;4.93;;;11.90;99.90;;;;;;5054665;28;20025;-82
2022/11/11 00:35:52;;;;;;;4.95;4.63;;;11.90;99.90;;;;;;5054635;28;20032;-83
2022/11/11 00:41:02;;;;;;;5.22;4.72;;;11.90;99.90;;;;;;5054847;28;20040;-82
2022/11/11 00:43:28;;;;;;;4.93;4.22;;;11.80;99.90;;;;;;5054388;28;20024;-82
2022/11/11 00:50:57;;;;;;;6.13;5.07;;;11.80;99.90;;;;;;5046986;28;20050;-82
2022/11/11 00:51:24;;;;;;;4.90;4.50;;;11.80;99.90;;;;;;5034697;28;20059;-83
2022/11/11 00:53:49;;;;;;;5.10;4.65;;;11.80;99.90;;;;;;5034190;28;20522;-82
2022/11/11 00:56:15;;;;;;;5.40;4.45;;;11.90;99.90;;;;;;5023654;28;20117;-82
2022/11/11 00:58:41;;;;;;;4.78;4.25;;;11.80;99.90;;;;;;5014561;28;20022;-82
2022/11/11 01:01:06;;;;;;;5.47;4.88;;;11.80;99.90;;;;;;5014391;28;20026;-82
2022/11/11 01:03:32;;;;;;;4.72;4.43;;;11.80;99.90;;;;;;4996611;28;20140;-82
2022/11/11 01:06:03;;;;;;;5.28;4.78;;;11.80;99.90;;;;;;5014370;28;20029;-82
2022/11/11 01:08:29;;;;;;;4.45;4.15;;;11.90;99.90;;;;;;5014199;28;20399;-83
2022/11/11 01:10:55;;;;;;;5.22;4.72;;;11.80;99.90;;;;;;5014213;28;20030;-82
2022/11/11 01:13:24;;;;;;;4.93;4.53;;;11.90;99.90;;;;;;5013978;28;20077;-83
2022/11/11 01:15:53;;;;;;;4.97;4.40;;;11.90;99.90;;;;;;5014102;28;20402;-83
2022/11/11 01:18:24;;;;;;;4.75;4.25;;;11.90;99.90;;;;;;4996378;28;20057;-82
2022/11/11 01:21:11;;;;;;;4.60;4.20;;;11.90;99.90;;;;;;5014028;28;20022;-82
2022/11/11 01:23:39;;;;;;;5.50;4.20;;;11.90;99.90;;;;;;5018175;28;20025;-82
2022/11/11 01:26:16;;;;;;;4.82;4.43;;;11.90;99.90;;;;;;5024704;28;20014;-82
2022/11/11 01:28:42;;;;;;;4.75;4.35;;;11.90;99.90;;;;;;5029142;28;20040;-82
2022/11/11 01:31:10;;;;;;;5.65;4.05;;;11.90;99.90;;;;;;5013809;28;20447;-82
2022/11/11 01:33:36;;;;;;;4.70;4.00;;;11.90;99.90;;;;;;4996020;28;20033;-83
2022/11/11 01:36:14;;;;;;;3.85;3.53;;;11.90;99.90;;;;;;5013671;28;20496;-83
2022/11/11 01:38:41;;;;;;;4.43;3.92;;;11.90;99.90;;;;;;5013766;28;20076;-83
2022/11/11 01:44:17;;;;;;;3.97;3.67;;;11.90;99.90;;;;;;4952935;29;20063;-82
2022/11/11 01:46:57;;;;;;;5.93;4.20;;;11.80;99.90;;;;;;4999651;28;20045;-82
2022/11/11 01:49:35;;;;;;;4.32;3.50;;;11.90;99.90;;;;;;5033150;28;20117;-82
2022/11/11 01:52:16;;;;;;;5.50;3.97;;;11.90;99.90;;;;;;5033386;28;20025;-82
2022/11/11 01:54:53;;;;;;;3.78;3.47;;;11.90;99.90;;;;;;5048277;28;20029;-82
2022/11/11 01:57:30;;;;;;;3.10;2.90;;;11.90;99.90;;;;;;5033072;28;20080;-82
2022/11/11 02:00:04;;;;;;;4.30;3.97;;;11.90;99.90;;;;;;5032951;28;20109;-82
2022/11/11 02:02:37;;;;;;;3.65;3.40;;;11.90;99.90;;;;;;5032701;28;20025;-82
2022/11/11 02:07:50;;;;;;;4.50;3.42;;;11.80;99.90;;;;;;5032932;28;20037;-82
2022/11/11 02:10:29;;;;;;;3.75;3.33;;;11.90;99.90;;;;;;5032510;28;20407;-82
2022/11/11 02:15:39;;;;;;;3.40;3.20;;;11.80;99.90;;;;;;5052879;28;20067;-82
2022/11/11 02:18:06;;;;;;;4.60;3.50;;;11.80;99.90;;;;;;5052455;28;20018;-83
2022/11/11 02:20:43;;;;;;;3.45;3.25;;;11.80;99.90;;;;;;5052557;28;20111;-83
2022/11/11 02:23:18;;;;;;;3.47;3.17;;;11.80;99.90;;;;;;5034324;28;20434;-82
2022/11/11 02:25:47;;;;;;;3.30;3.10;;;11.80;99.90;;;;;;5046307;28;20072;-83
2022/11/11 02:28:14;;;;;;;3.33;3.03;;;11.80;99.90;;;;;;5032516;28;20480;-83
2022/11/11 02:30:43;;;;;;;3.15;2.95;;;11.80;99.90;;;;;;5032221;28;20300;-82
2022/11/11 02:33:09;;;;;;;3.45;3.08;;;11.80;99.90;;;;;;5032229;28;20037;-82
2022/11/11 02:35:37;;;;;;;3.40;3.20;;;11.70;99.90;;;;;;5047833;28;20394;-83
2022/11/11 02:38:08;;;;;;;2.70;2.60;;;11.70;99.90;;;;;;5032287;28;20391;-82
2022/11/11 02:41:55;;;;;;;5.50;3.23;;;11.70;99.90;;;;;;5032230;28;20025;-83
2022/11/11 02:43:28;;;;;;;3.40;3.20;;;11.70;99.90;;;;;;5032157;28;20028;-83
2022/11/11 02:45:54;;;;;;;2.70;2.60;;;11.70;99.90;;;;;;5014390;28;20045;-82
2022/11/11 02:48:20;;;;;;;2.80;2.60;;;11.70;99.90;;;;;;5031982;28;20030;-83
2022/11/11 02:50:45;;;;;;;3.97;2.65;;;11.70;99.90;;;;;;5014204;28;20021;-82
2022/11/11 02:53:11;;;;;;;3.10;2.90;;;11.70;99.90;;;;;;5032003;28;20025;-82
2022/11/11 02:55:37;;;;;;;3.75;2.50;;;11.70;99.90;;;;;;5031730;28;20403;-82
2022/11/11 02:58:03;;;;;;;3.00;2.80;;;11.70;99.90;;;;;;5047300;28;20061;-82
2022/11/11 03:00:29;;;;;;;2.88;2.67;;;11.70;99.90;;;;;;5032053;28;20056;-83
2022/11/11 03:02:54;;;;;;;2.45;2.35;;;11.70;99.90;;;;;;5031691;28;20440;-83
2022/11/11 03:05:21;;;;;;;4.57;2.92;;;11.70;99.90;;;;;;5031794;28;20040;-82
2022/11/11 03:07:46;;;;;;;3.22;3.00;;;11.70;99.90;;;;;;5031832;28;20033;-82
2022/11/11 03:10:12;;;;;;;3.30;3.05;;;11.60;99.90;;;;;;5031672;28;20021;-83
2022/11/11 03:12:38;;;;;;;3.50;3.22;;;11.70;99.90;;;;;;5047124;28;20041;-83
2022/11/11 03:15:04;;;;;;;4.90;2.97;;;11.70;99.90;;;;;;5031738;28;20401;-82
2022/11/11 03:17:39;;;;;;;3.05;2.85;;;11.70;99.90;;;;;;5015335;28;20398;-82
2022/11/11 03:23:06;;;;;;;2.92;2.72;;;11.70;99.90;;;;;;5051779;28;20127;-82
2022/11/11 03:25:37;;;;;;;2.95;2.83;;;11.70;99.90;;;;;;5028928;28;20079;-82
2022/11/11 03:28:07;;;;;;;2.85;2.72;;;11.70;99.90;;;;;;5013827;28;20025;-82
2022/11/11 03:30:33;;;;;;;2.58;2.47;;;11.70;99.90;;;;;;5046878;28;20026;-82
2022/11/11 03:32:59;;;;;;;2.50;2.40;;;11.60;99.90;;;;;;5031477;28;20026;-83
2022/11/11 03:35:25;;;;;;;2.67;2.50;;;11.70;99.90;;;;;;5031390;28;20025;-83
2022/11/11 03:40:35;;;;;;;6.97;2.72;;;11.70;99.90;;;;;;5031400;28;20036;-82
2022/11/11 03:43:02;;;;;;;2.90;2.78;;;11.60;99.90;;;;;;5046603;28;20025;-82
2022/11/11 03:45:27;;;;;;;2.58;2.38;;;11.70;99.90;;;;;;5013340;28;20193;-82
2022/11/11 03:47:53;;;;;;;2.55;2.38;;;11.70;99.90;;;;;;5031468;28;20025;-82
2022/11/11 03:50:20;;;;;;;3.15;2.42;;;11.60;99.90;;;;;;5031274;28;20092;-82
2022/11/11 03:52:46;;;;;;;3.03;2.33;;;11.70;99.90;;;;;;5046546;28;20035;-82
2022/11/11 03:55:12;;;;;;;2.60;2.40;;;11.70;99.90;;;;;;5046574;28;20520;-82
2022/11/11 03:57:45;;;;;;;2.90;2.65;;;11.70;99.90;;;;;;5031041;28;20033;-82
2022/11/11 04:00:17;;;;;;;2.70;2.53;;;11.70;99.90;;;;;;5031388;28;20030;-82
2022/11/11 04:11:08;;;;;;;2.90;2.70;;;11.60;99.90;;;;;;5035298;28;20041;-82
2022/11/11 04:16:19;;;;;;;2.80;2.60;;;11.60;99.90;;;;;;5035109;28;20052;-82
2022/11/11 04:21:44;;;;;;;3.05;2.78;;;11.60;99.90;;;;;;5035063;28;20028;-82
2022/11/11 04:26:57;;;;;;;3.10;2.90;;;11.60;99.90;;;;;;5034970;28;20068;-82
2022/11/11 04:29:29;;;;;;;2.85;2.65;;;11.60;99.90;;;;;;5034822;28;20025;-82
2022/11/11 04:34:48;;;;;;;2.70;2.50;;;11.60;99.90;;;;;;5034710;28;20125;-82
2022/11/11 04:37:15;;;;;;;2.40;2.25;;;11.60;99.90;;;;;;5016818;28;20026;-82
2022/11/11 04:42:27;;;;;;;2.78;2.58;;;11.70;99.90;;;;;;5034345;28;20434;-82
2022/11/11 04:47:37;;;;;;;2.53;2.33;;;11.70;99.90;;;;;;5034315;28;20048;-82
2022/11/11 04:50:04;;;;;;;3.08;2.88;;;11.70;99.90;;;;;;5034433;28;20029;-82
2022/11/11 04:52:31;;;;;;;2.97;2.78;;;11.70;99.90;;;;;;5016448;28;20402;-82
2022/11/11 04:57:45;;;;;;;2.60;2.40;;;11.60;99.90;;;;;;5034187;28;20108;-82
2022/11/11 05:00:16;;;;;;;2.75;2.55;;;11.60;99.90;;;;;;5034138;28;20061;-82
2022/11/11 05:05:27;;;;;;;7.10;2.80;;;11.70;99.90;;;;;;5034343;28;20031;-82
2022/11/11 05:10:39;;;;;;;3.08;2.88;;;11.70;99.90;;;;;;5049217;28;20044;-83
2022/11/11 05:21:29;;;;;;;4.30;3.20;;;11.60;99.90;;;;;;5053776;28;20036;-81
2022/11/11 05:26:39;;;;;;;2.92;2.72;;;11.50;99.90;;;;;;5039899;28;20099;-82
2022/11/11 05:29:05;;;;;;;2.80;2.60;;;11.60;99.90;;;;;;5033658;28;20459;-82
2022/11/11 05:31:30;;;;;;;4.00;3.03;;;11.50;99.90;;;;;;5033341;28;20092;-82
2022/11/11 05:33:56;;;;;;;3.00;2.80;;;11.50;99.90;;;;;;5014029;28;20029;-82
2022/11/11 05:36:25;;;;;;;2.75;2.55;;;11.60;99.90;;;;;;5033453;28;20036;-82
2022/11/11 05:38:51;;;;;;;2.90;2.70;;;11.60;99.90;;;;;;5033147;28;20025;-81
2022/11/11 05:41:20;;;;;;;3.40;3.20;;;11.60;99.90;;;;;;5042569;28;20029;-82
2022/11/11 05:43:45;;;;;;;3.83;2.67;;;11.60;99.90;;;;;;5025104;28;20442;-82
2022/11/11 05:46:11;;;;;;;2.63;2.53;;;11.60;99.90;;;;;;5033143;28;20077;-82
2022/11/11 05:49:14;;;;;;;3.13;2.92;;;11.60;99.90;;;;;;5021204;28;20017;-82
2022/11/11 05:51:26;;;;;;;5.38;2.63;;;11.60;99.90;;;;;;5020157;28;20030;-82
2022/11/11 05:53:53;;;;;;;3.00;2.80;;;11.50;99.90;;;;;;5011250;28;20185;-82
2022/11/11 05:56:19;;;;;;;2.72;2.58;;;11.60;99.90;;;;;;5004138;28;20064;-82
2022/11/11 05:58:47;;;;;;;2.13;2.03;;;11.50;99.90;;;;;;5018083;28;20045;-82
2022/11/11 06:01:13;;;;;;;2.35;2.25;;;11.50;99.90;;;;;;5021795;28;20025;-82
2022/11/11 06:03:38;;;;;;;3.25;2.67;;;11.50;99.90;;;;;;5004794;28;20025;-82
2022/11/11 06:06:04;;;;;;;2.55;2.35;;;11.60;99.90;;;;;;5014908;28;20076;-82
2022/11/11 06:08:30;;;;;;;2.65;2.53;;;11.50;99.90;;;;;;5032847;28;20032;-82
2022/11/11 06:10:57;;;;;;;2.75;2.58;;;11.50;99.90;;;;;;5032614;28;20079;-82
2022/11/11 06:13:23;;;;;;;2.90;2.70;;;11.50;99.90;;;;;;5031029;28;20029;-82
2022/11/11 06:15:49;;;;;;;2.70;2.50;;;11.50;99.90;;;;;;5012659;28;20543;-82
2022/11/11 06:18:14;;;;;;;2.20;2.10;;;11.50;99.90;;;;;;5012066;28;20026;-81
2022/11/11 06:20:40;;;;;;;3.15;2.95;;;11.50;99.90;;;;;;5012587;28;20399;-82
2022/11/11 06:23:06;;;;;;;5.43;2.50;;;11.60;99.90;;;;;;4995121;28;20036;-82
2022/11/11 06:28:18;;;;;;;3.92;2.53;;;11.60;99.90;;;;;;5032541;28;20505;-82
2022/11/11 06:30:44;;;;;;;2.75;2.50;;;11.60;99.90;;;;;;5031767;28;20036;-82
2022/11/11 06:33:10;;;;;;;2.58;2.38;;;11.60;99.90;;;;;;5012623;28;20048;-82
2022/11/11 06:35:37;;;;;;;3.35;2.50;;;11.60;99.90;;;;;;5030452;28;20025;-81
2022/11/11 06:38:04;;;;;;;2.40;2.00;;;11.60;99.90;;;;;;5030280;28;20060;-82
2022/11/11 06:40:31;;;;;;;8.77;2.40;;;11.60;99.90;;;;;;5030260;28;20021;-81
2022/11/11 06:42:59;;;;;;;2.55;2.42;;;11.70;99.90;;;;;;5030430;28;20018;-82
2022/11/11 06:45:27;;;;;;;2.90;2.33;;;11.70;99.90;;;;;;5033617;28;20109;-81
2022/11/11 06:47:56;;;;;;;2.80;2.60;;;11.70;99.90;;;;;;5052004;28;20395;-82
2022/11/11 06:50:22;;;;;;;3.40;3.10;;;11.70;99.90;;;;;;5051886;28;20044;-82
2022/11/11 06:52:47;;;;;;;2.72;2.53;;;11.70;99.90;;;;;;5051844;28;20395;-82
2022/11/11 06:55:13;;;;;;;2.88;2.67;;;11.80;99.90;;;;;;5050011;28;20032;-82
2022/11/11 06:57:39;;;;;;;3.92;3.42;;;11.80;99.90;;;;;;5031698;28;20072;-81
2022/11/11 07:00:06;;;;;;;5.05;4.35;;;11.80;99.90;;;;;;5031838;28;20021;-82
2022/11/11 07:02:32;;;;;;;6.13;5.55;;;11.80;99.90;;;;;;5049528;28;20024;-82
2022/11/11 07:04:58;;;;;;;6.07;5.35;;;11.80;99.90;;;;;;5031928;28;20079;-81
2022/11/11 07:07:24;;;;;;;4.45;4.05;;;11.80;99.90;;;;;;5014141;28;20029;-82
2022/11/11 07:09:50;;;;;;;5.35;4.85;;;11.90;99.90;;;;;;5031904;28;20064;-81
2022/11/11 07:12:16;;;;;;;4.93;3.85;;;11.90;99.90;;;;;;5013838;28;20052;-82
2022/11/11 07:14:43;;;;;;;5.13;3.15;;;11.90;99.90;;;;;;5031590;28;20051;-82
2022/11/11 07:17:11;;;;;;;2.55;2.35;;;12.00;99.90;;;;;;5031653;28;20022;-82
2022/11/11 07:19:37;;;;;;;2.72;2.35;;;12.00;99.90;;;;;;5031523;28;20032;-82
2022/11/11 07:22:06;;;;;;;3.20;2.30;;;12.10;99.90;;;;;;5032792;28;20021;-82
2022/11/11 07:24:32;;;;;;;2.97;1.70;;;12.20;99.90;;;;;;5032663;28;20072;-82
2022/11/11 07:26:58;;;;;;;2.60;2.15;;;12.30;99.90;;;;;;5032969;28;20017;-81
2022/11/11 07:29:24;;;;;;;2.00;1.90;;;12.40;99.90;;;;;;5032648;28;20108;-82
2022/11/11 07:31:50;;;;;;;2.33;1.80;;;12.50;99.90;;;;;;5032606;28;20061;-82
2022/11/11 07:34:18;;;;;;;2.63;1.85;;;12.50;99.90;;;;;;5032599;28;20522;-81
2022/11/11 07:36:44;;;;;;;3.03;1.70;;;12.60;99.90;;;;;;5014994;28;20021;-81
2022/11/11 07:39:10;;;;;;;1.88;1.58;;;12.70;99.90;;;;;;5033590;28;20745;-82
2022/11/11 07:41:35;;;;;;;3.35;2.05;;;12.70;99.90;;;;;;5037036;28;20104;-82
2022/11/11 07:44:01;;;;;;;3.05;2.22;;;12.80;99.90;;;;;;5036882;28;20094;-82
2022/11/11 07:46:27;;;;;;;3.05;2.30;;;12.90;99.90;;;;;;5015751;28;20500;-82
2022/11/11 07:48:52;;;;;;;1.50;1.40;;;12.90;99.90;;;;;;5048728;28;20033;-82
2022/11/11 07:51:18;;;;;;;2.35;1.60;;;13.00;99.90;;;;;;5017088;28;20156;-81
2022/11/11 07:53:44;;;;;;;1.60;1.50;;;13.00;99.90;;;;;;5016893;28;20041;-82
2022/11/11 07:56:09;;;;;;;4.75;1.85;;;13.00;99.90;;;;;;5015248;28;20116;-82
2022/11/11 07:58:35;;;;;;;4.75;1.48;;;13.10;99.90;;;;;;5023167;28;20036;-82
2022/11/11 08:01:01;;;;;;;3.03;1.42;;;13.10;99.90;;;;;;5023542;28;20018;-81
2022/11/11 08:03:27;;;;;;;3.50;1.80;;;13.10;99.90;;;;;;5025039;28;20026;-82
2022/11/11 08:05:56;;;;;;;8.25;1.58;;;13.10;99.90;;;;;;5026642;28;20021;-81
2022/11/11 08:08:25;;;;;;;3.72;1.85;;;13.10;99.90;;;;;;5027090;28;20052;-82
2022/11/11 08:10:54;;;;;;;1.67;1.58;;;13.10;99.90;;;;;;5022216;28;20475;-82
2022/11/11 08:16:05;;;;;;;2.75;1.60;;;13.20;99.90;;;;;;5036380;28;20090;-81
2022/11/11 08:18:33;;;;;;;1.92;1.67;;;13.20;99.90;;;;;;5018961;28;20102;-80
2022/11/11 08:20:59;;;;;;;2.33;1.50;;;13.30;99.90;;;;;;5016573;28;20018;-82
2022/11/11 08:23:31;;;;;;;5.78;1.77;;;13.30;99.90;;;;;;4998381;28;20080;-81
2022/11/11 08:25:58;;;;;;;2.83;2.50;;;13.40;99.90;;;;;;4997199;28;20050;-81
2022/11/11 08:28:25;;;;;;;2.60;2.40;;;13.50;99.90;;;;;;5013017;28;20037;-81
2022/11/11 08:30:51;;;;;;;2.72;2.15;;;13.50;99.90;;;;;;5012884;28;20025;-82
2022/11/11 08:33:16;;;;;;;1.92;1.83;;;13.50;99.90;;;;;;5013013;28;20022;-82
2022/11/11 08:35:42;;;;;;;2.03;1.83;;;13.40;99.90;;;;;;4995084;28;20034;-80
2022/11/11 08:38:08;;;;;;;1.80;1.70;;;13.50;99.90;;;;;;5012846;28;20036;-82
2022/11/11 08:40:36;;;;;;;1.60;1.50;;;13.50;99.90;;;;;;5012689;28;20026;-81
2022/11/11 08:43:02;;;;;;;1.67;1.58;;;13.60;99.90;;;;;;5028999;28;20373;-82
2022/11/11 08:45:27;;;;;;;1.50;1.40;;;13.60;99.90;;;;;;5018007;28;20048;-82
2022/11/11 08:47:53;;;;;;;1.17;1.13;;;13.70;99.90;;;;;;5049623;28;20025;-82
2022/11/11 08:50:19;;;;;;;1.50;1.40;;;13.80;99.90;;;;;;5033915;28;20056;-82
2022/11/11 08:52:46;;;;;;;1.63;1.52;;;13.80;99.90;;;;;;5034110;28;20017;-81
2022/11/11 08:55:11;;;;;;;2.05;1.80;;;13.80;99.90;;;;;;5049562;28;20087;-82
2022/11/11 08:57:40;;;;;;;2.00;1.52;;;14.00;99.90;;;;;;5033924;28;20471;-81
2022/11/11 09:00:07;;;;;;;1.85;1.30;;;14.00;99.90;;;;;;5034148;28;20037;-81
2022/11/11 09:02:32;;;;;;;2.45;2.15;;;14.00;99.90;;;;;;5049356;28;20478;-82
2022/11/11 09:04:58;;;;;;;3.25;2.85;;;14.10;99.90;;;;;;5053657;28;20067;-82
2022/11/11 09:07:25;;;;;;;3.08;2.78;;;14.10;99.90;;;;;;5053764;28;20048;-81
2022/11/11 09:09:50;;;;;;;4.35;2.90;;;14.20;99.90;;;;;;5053838;28;20028;-81
2022/11/11 09:12:16;;;;;;;2.60;2.42;;;14.10;99.90;;;;;;5053983;28;20025;-82
2022/11/11 09:14:42;;;;;;;2.60;2.28;;;14.10;99.90;;;;;;5035781;28;20108;-82
2022/11/11 09:17:07;;;;;;;4.18;3.72;;;14.10;99.90;;;;;;5053819;28;20095;-81
2022/11/11 09:19:33;;;;;;;4.28;3.90;;;14.10;99.90;;;;;;5053547;28;20475;-81
2022/11/11 09:21:59;;;;;;;4.88;4.07;;;14.10;99.90;;;;;;5053429;28;20395;-81
2022/11/11 09:24:25;;;;;;;3.88;3.40;;;14.10;99.90;;;;;;5053665;28;20064;-81
2022/11/11 09:26:50;;;;;;;4.32;3.85;;;14.10;99.90;;;;;;5037973;28;20192;-82
2022/11/11 09:29:17;;;;;;;4.65;4.28;;;14.10;99.90;;;;;;5033563;28;20025;-81
2022/11/11 09:31:43;;;;;;;5.13;4.43;;;14.10;99.90;;;;;;5033445;28;20032;-82
2022/11/11 09:34:09;;;;;;;3.92;3.63;;;14.20;99.90;;;;;;5033423;28;20041;-82
2022/11/11 09:36:34;;;;;;;4.25;3.90;;;14.30;99.90;;;;;;5033377;28;20483;-81
2022/11/11 09:39:00;;;;;;;2.70;2.58;;;14.30;99.90;;;;;;5033443;28;20113;-82
2022/11/11 09:41:37;;;;;;;2.40;2.30;;;14.40;99.90;;;;;;5033181;28;20435;-82
2022/11/11 09:44:04;;;;;;;2.50;2.40;;;14.50;99.90;;;;;;5033388;28;20036;-82
2022/11/11 09:47:03;;;;;;;3.10;2.83;;;14.50;99.90;;;;;;5033121;28;20052;-81
2022/11/11 09:49:49;;;;;;;4.35;3.25;;;14.50;99.90;;;;;;5015342;28;20560;-82
2022/11/11 09:52:26;;;;;;;4.63;2.67;;;14.50;99.90;;;;;;5015081;28;20387;-82
2022/11/11 09:54:55;;;;;;;3.28;3.05;;;14.60;99.90;;;;;;5049827;28;20090;-82
2022/11/11 09:57:37;;;;;;;3.42;3.22;;;14.60;99.90;;;;;;5033366;28;20029;-81
2022/11/11 10:00:17;;;;;;;3.20;3.00;;;14.80;99.90;;;;;;5032906;28;20026;-82
2022/11/11 10:02:48;;;;;;;2.42;2.33;;;14.80;99.90;;;;;;5032273;28;20108;-82
2022/11/11 10:05:19;;;;;;;3.00;2.78;;;14.80;99.90;;;;;;5015168;28;20053;-81
2022/11/11 10:07:45;;;;;;;3.25;3.05;;;14.90;99.90;;;;;;5032859;28;20044;-82
2022/11/11 10:10:17;;;;;;;3.47;3.17;;;15.00;99.90;;;;;;5047933;28;20033;-82
2022/11/11 10:12:49;;;;;;;3.35;3.15;;;15.00;99.90;;;;;;5048025;28;20380;-82
2022/11/11 10:15:16;;;;;;;5.07;4.68;;;15.10;99.90;;;;;;5015196;28;20084;-82
2022/11/11 10:17:50;;;;;;;5.57;5.07;;;15.10;99.90;;;;;;5047566;28;20053;-80
2022/11/11 10:20:31;;;;;;;7.03;6.20;;;15.10;99.90;;;;;;5032679;28;20035;-81
2022/11/11 10:23:34;;;;;;;9.43;7.28;;;15.20;99.90;;;;;;5047746;28;20091;-81
2022/11/11 10:26:14;;;;;;;10.52;7.75;;;15.30;99.90;;;;;;5014449;28;20029;-81
2022/11/11 10:28:43;;;;;;;11.77;9.27;;;15.30;99.90;;;;;;5032653;28;20021;-81
2022/11/11 10:31:16;;;;;;;12.63;10.13;;;15.30;99.90;;;;;;5032659;28;20018;-81
2022/11/11 10:33:57;;;;;;;14.00;10.57;;;15.30;99.90;;;;;;5014658;28;20431;-81
2022/11/11 10:36:25;;;;;;;14.18;10.77;;;15.30;99.90;;;;;;5014737;28;20021;-82
2022/11/11 10:39:03;;;;;;;12.15;10.52;;;15.30;99.90;;;;;;5032120;28;20104;-82
2022/11/11 10:41:39;;;;;;;12.98;10.30;;;15.30;99.90;;;;;;5032335;28;20021;-81
2022/11/11 10:44:30;;;;;;;11.18;9.63;;;15.30;99.90;;;;;;5014387;28;20025;-81
2022/11/11 10:47:20;;;;;;;12.63;9.90;;;15.30;99.90;;;;;;5014256;28;20060;-82
2022/11/11 10:49:52;;;;;;;15.57;10.50;;;15.30;99.90;;;;;;5047430;28;20025;-82
2022/11/11 10:52:44;;;;;;;;;;;15.30;99.90;;;;;;5047825;28;20509;-81
2022/11/11 10:55:26;;;;;;;12.93;10.53;;;15.50;99.90;;;;;;5030394;28;19913;-81
2022/11/11 10:58:04;;;;;;;17.45;10.60;;;15.50;99.90;;;;;;5012142;28;20022;-81
2022/11/11 11:00:32;;;;;;;11.82;9.40;;;15.50;99.90;;;;;;5027336;28;20045;-81
2022/11/11 11:03:05;;;;;;;15.05;10.80;;;15.50;99.90;;;;;;4994218;28;20098;-81
2022/11/11 11:05:35;;;;;;;;;;;15.60;99.90;;;;;;5012521;28;20084;-81
2022/11/11 11:08:13;;;;;;;17.13;11.10;;;15.70;99.90;;;;;;5011934;28;19905;-81
2022/11/11 11:10:54;;;;;;;15.05;11.32;;;15.70;99.90;;;;;;5011928;28;20041;-81
2022/11/11 11:13:33;;;;;;;11.65;10.45;;;15.70;99.90;;;;;;5011700;28;20041;-81
2022/11/11 11:16:05;;;;;;;14.30;11.00;;;15.80;99.90;;;;;;4994279;28;20026;-82
2022/11/11 11:18:31;;;;;;;15.23;11.63;;;15.80;99.90;;;;;;5011946;28;20026;-81
2022/11/11 11:20:58;;;;;;;13.10;10.98;;;15.80;99.90;;;;;;5011733;28;20071;-82
2022/11/11 11:23:42;;;;;;;14.80;12.35;;;15.80;99.90;;;;;;4994018;28;20206;-81
2022/11/11 11:26:10;;;;;;;13.45;11.52;;;15.80;99.90;;;;;;5021114;28;20100;-81
2022/11/11 11:29:05;;;;;;;17.35;12.35;;;15.80;99.90;;;;;;5031612;28;20480;-81
2022/11/11 11:31:39;;;;;;;22.00;12.45;;;15.90;99.90;;;;;;5001198;28;20061;-82
2022/11/11 11:34:06;;;;;;;18.92;12.90;;;15.80;99.90;;;;;;5013732;28;20035;-82
2022/11/11 11:36:31;;;;;;;21.98;12.88;;;15.80;99.90;;;;;;5031431;28;20277;-81
2022/11/11 11:38:57;;;;;;;14.35;11.20;;;15.80;99.90;;;;;;5031372;28;20116;-81
2022/11/11 11:41:42;;;;;;;13.43;10.70;;;15.80;99.90;;;;;;5013830;28;20024;-81
2022/11/11 11:44:34;;;;;;;12.40;10.60;;;15.80;99.90;;;;;;5031352;28;20025;-81
2022/11/11 11:47:09;;;;;;;;;;;15.80;99.90;;;;;;5031708;28;20053;-81
2022/11/11 11:50:16;;;;;;;15.57;12.13;;;15.80;99.90;;;;;;5031316;28;20264;-82
2022/11/11 11:53:23;;;;;;;11.98;10.77;;;15.70;99.90;;;;;;5031238;28;20026;-81
2022/11/11 11:56:09;;;;;;;14.90;11.02;;;15.70;99.90;;;;;;5033187;28;20029;-81
2022/11/11 11:59:08;;;;;;;14.65;11.73;;;15.70;99.90;;;;;;5031218;28;20032;-81
2022/11/11 12:01:57;;;;;;;12.43;10.80;;;15.70;99.90;;;;;;5031302;28;20028;-81
2022/11/11 12:04:31;;;;;;;13.73;11.13;;;15.70;99.90;;;;;;5013511;28;20075;-81
2022/11/11 12:07:15;;;;;;;11.00;9.90;;;15.60;99.90;;;;;;5046506;28;20486;-82
2022/11/11 12:10:02;;;;;;;12.35;11.00;;;15.70;99.90;;;;;;5046383;28;20033;-82
2022/11/11 12:12:34;;;;;;;12.55;10.45;;;15.70;99.90;;;;;;5031075;28;20361;-81
2022/11/11 12:15:28;;;;;;;12.80;10.80;;;15.70;99.90;;;;;;5013403;28;20033;-81
2022/11/11 12:18:06;;;;;;;11.80;10.52;;;15.70;99.90;;;;;;5031047;28;20037;-81
2022/11/11 12:21:03;;;;;;;15.70;11.57;;;15.70;99.90;;;;;;5031136;28;20387;-81
2022/11/11 12:23:35;;;;;;;13.02;11.02;;;15.70;99.90;;;;;;5012569;28;20021;-81
2022/11/11 12:26:17;;;;;;;11.80;10.70;;;15.70;99.90;;;;;;5033075;28;20480;-81
2022/11/11 12:28:55;;;;;;;11.50;10.30;;;15.70;99.90;;;;;;5034902;28;20523;-81
2022/11/11 12:31:45;;;;;;;13.02;10.93;;;15.70;99.90;;;;;;5034711;28;20040;-81
2022/11/11 12:34:21;;;;;;;11.55;10.27;;;15.70;99.90;;;;;;5034631;28;20036;-81
2022/11/11 12:37:08;;;;;;;11.98;10.40;;;15.70;99.90;;;;;;5034732;28;20063;-81
2022/11/11 12:40:15;;;;;;;11.75;10.57;;;15.70;99.90;;;;;;5016894;28;20029;-81
2022/11/11 12:43:08;;;;;;;12.40;10.57;;;15.70;99.90;;;;;;5034490;28;20171;-81
2022/11/11 12:45:39;;;;;;;10.88;9.77;;;15.70;99.90;;;;;;5034656;28;20068;-81
2022/11/11 12:48:05;;;;;;;12.02;10.68;;;15.70;99.90;;;;;;5030676;28;20029;-81
2022/11/11 12:50:47;;;;;;;11.85;10.63;;;15.70;99.90;;;;;;5036390;28;20123;-81
2022/11/11 12:53:35;;;;;;;13.93;10.40;;;15.70;99.90;;;;;;5036394;28;20033;-81
2022/11/11 12:56:20;;;;;;;9.52;8.43;;;15.70;99.90;;;;;;5027776;28;20107;-81
2022/11/11 12:58:58;;;;;;;11.57;9.45;;;15.70;99.90;;;;;;5049581;28;20415;-81
2022/11/11 13:01:48;;;;;;;17.33;11.00;;;15.70;99.90;;;;;;5034037;28;20197;-81
2022/11/11 13:04:22;;;;;;;11.60;10.38;;;15.80;99.90;;;;;;5034095;28;20030;-81
2022/11/11 13:07:01;;;;;;;10.10;9.07;;;15.80;99.90;;;;;;5034180;28;20105;-81
2022/11/11 13:09:54;;;;;;;16.23;10.02;;;15.80;99.90;;;;;;5033966;28;20068;-81
2022/11/11 13:13:02;;;;;;;10.20;9.20;;;15.90;99.90;;;;;;5034072;28;20036;-81
2022/11/11 13:15:28;;;;;;;9.27;8.23;;;15.90;99.90;;;;;;4988657;28;20124;-81
2022/11/11 13:17:53;;;;;;;10.68;9.55;;;15.90;99.90;;;;;;5049024;28;20087;-81
2022/11/11 13:20:28;;;;;;;10.57;9.27;;;15.80;99.90;;;;;;5034671;28;20022;-81
2022/11/11 13:22:54;;;;;;;11.20;9.00;;;15.80;99.90;;;;;;5035029;28;20029;-81
2022/11/11 13:25:24;;;;;;;10.85;9.18;;;15.80;99.90;;;;;;5050338;28;20023;-81
2022/11/11 13:27:59;;;;;;;11.20;9.07;;;15.90;99.90;;;;;;5033225;28;20021;-75
2022/11/11 13:30:56;;;;;;;11.23;9.15;;;15.90;99.90;;;;;;5019587;28;20029;-76
2022/11/11 13:33:26;;;;;;;9.93;8.90;;;15.90;99.90;;;;;;5035278;28;20025;-75
2022/11/11 13:35:58;;;;;;;13.63;9.13;;;15.90;99.90;;;;;;5017023;28;20025;-76
2022/11/11 13:38:43;;;;;;;9.60;8.50;;;15.90;99.90;;;;;;5015905;28;20033;-76
2022/11/11 13:41:09;;;;;;;12.10;9.43;;;15.90;99.90;;;;;;5032901;28;20067;-80
2022/11/11 13:43:42;;;;;;;13.75;9.40;;;16.00;99.90;;;;;;5032088;28;20026;-80
2022/11/11 13:46:26;;;;;;;12.77;9.05;;;16.00;99.90;;;;;;5013989;28;20041;-81
2022/11/11 13:48:53;;;;;;;13.98;9.20;;;16.00;99.90;;;;;;5032381;28;20549;-81
2022/11/11 13:51:25;;;;;;;10.10;8.57;;;15.90;99.90;;;;;;5034753;28;20029;-80
2022/11/11 13:53:51;;;;;;;;;;;15.90;99.90;;;;;;5016883;28;20037;-80
2022/11/11 13:56:24;;;;;;;10.68;9.55;;;15.90;99.90;;;;;;5016456;28;19927;-81
2022/11/11 13:58:52;;;;;;;15.20;9.73;;;15.90;99.90;;;;;;5030016;28;20029;-81
2022/11/11 14:01:18;;;;;;;10.38;9.38;;;15.90;99.90;;;;;;5033471;28;20105;-80
2022/11/11 14:03:46;;;;;;;11.68;10.48;;;15.90;99.90;;;;;;5028458;28;20049;-80
2022/11/11 14:06:14;;;;;;;10.70;9.43;;;15.90;99.90;;;;;;5033248;28;20482;-81
2022/11/11 14:08:46;;;;;;;12.73;8.88;;;15.90;99.90;;;;;;5015622;28;20068;-81
2022/11/11 14:11:24;;;;;;;10.77;9.73;;;15.90;99.90;;;;;;5015799;28;20452;-80
2022/11/11 14:13:56;;;;;;;10.93;9.73;;;15.90;99.90;;;;;;5034190;28;20183;-81
2022/11/11 14:16:34;;;;;;;10.95;9.85;;;15.90;99.90;;;;;;5034239;28;20059;-80
2022/11/11 14:19:20;;;;;;;10.75;9.70;;;15.90;99.90;;;;;;5016278;28;20033;-80
2022/11/11 14:21:56;;;;;;;11.15;10.05;;;15.90;99.90;;;;;;5023412;28;20120;-81